createdAt,value
2022-12-15T00:00:51.910Z,11.55
2022-12-15T00:05:12.387Z,10.82
2022-12-15T00:09:33.194Z,11.52
2022-12-15T00:13:53.419Z,13.45
2022-12-15T00:18:15.235Z,14.20
2022-12-15T00:22:35.470Z,13.68
2022-12-15T00:26:55.711Z,13.07
2022-12-15T00:31:17.234Z,14.35
2022-12-15T00:35:39.292Z,13.65
2022-12-15T00:39:42.119Z,12.60
2022-12-15T00:43:46.113Z,13.23
2022-12-15T00:47:48.990Z,13.50
2022-12-15T00:52:10.608Z,11.35
2022-12-15T00:56:30.812Z,10.20
2022-12-15T01:00:51.237Z,11.18
2022-12-15T01:05:11.457Z,10.45
2022-12-15T01:09:33.459Z,9.98
2022-12-15T01:13:53.759Z,10.07
2022-12-15T01:18:14.383Z,10.13
2022-12-15T01:22:17.255Z,9.90
2022-12-15T01:26:21.450Z,10.00
2022-12-15T01:30:26.820Z,9.68
2022-12-15T01:34:29.768Z,10.15
2022-12-15T01:38:32.954Z,9.98
2022-12-15T01:42:37.250Z,9.93
2022-12-15T01:46:40.915Z,10.02
2022-12-15T01:50:48.360Z,10.18
2022-12-15T01:54:55.397Z,10.40
2022-12-15T01:59:02.302Z,9.60
2022-12-15T02:03:07.568Z,9.82
2022-12-15T02:07:14.112Z,10.52
2022-12-15T02:11:52.585Z,10.82
2022-12-15T02:16:03.524Z,10.77
2022-12-15T02:20:32.671Z,10.90
2022-12-15T02:25:04.636Z,11.55
2022-12-15T02:29:35.598Z,11.68
2022-12-15T02:33:45.808Z,12.50
2022-12-15T02:37:49.777Z,12.77
2022-12-15T02:41:53.254Z,13.05
2022-12-15T02:46:08.858Z,12.38
2022-12-15T02:50:34.721Z,12.40
2022-12-15T02:54:50.935Z,12.45
2022-12-15T02:59:03.913Z,12.23
2022-12-15T03:03:07.138Z,12.15
2022-12-15T03:07:11.524Z,12.52
2022-12-15T03:11:14.345Z,11.32
2022-12-15T03:15:17.512Z,12.02
2022-12-15T03:19:20.439Z,12.05
2022-12-15T03:23:24.668Z,12.27
2022-12-15T03:27:27.459Z,12.40
2022-12-15T03:31:30.524Z,12.18
2022-12-15T03:35:34.212Z,12.60
2022-12-15T03:39:38.440Z,11.73
2022-12-15T03:43:41.385Z,12.13
2022-12-15T03:47:44.347Z,11.05
2022-12-15T03:51:47.172Z,11.90
2022-12-15T03:55:51.394Z,12.30
2022-12-15T03:59:55.317Z,11.18
2022-12-15T04:04:01.120Z,12.23
2022-12-15T04:08:04.533Z,11.88
2022-12-15T04:12:11.631Z,11.93
2022-12-15T04:16:19.581Z,11.05
2022-12-15T04:20:23.398Z,11.77
2022-12-15T04:24:44.112Z,11.40
2022-12-15T04:29:05.869Z,12.02
2022-12-15T04:33:30.598Z,10.90
2022-12-15T04:37:51.263Z,10.77
2022-12-15T04:42:13.923Z,11.07
2022-12-15T04:46:35.724Z,10.50
2022-12-15T04:50:56.080Z,9.40
2022-12-15T04:55:16.766Z,10.40
2022-12-15T04:59:37.178Z,9.77
2022-12-15T05:03:59.091Z,9.98
2022-12-15T05:08:19.725Z,10.77
2022-12-15T05:12:40.351Z,11.48
2022-12-15T05:17:00.949Z,11.15
2022-12-15T05:21:23.310Z,10.32
2022-12-15T05:25:43.930Z,10.35
2022-12-15T05:30:04.334Z,11.32
2022-12-15T05:34:07.613Z,10.77
2022-12-15T05:38:11.790Z,10.50
2022-12-15T05:42:14.656Z,10.68
2022-12-15T05:46:17.595Z,10.77
2022-12-15T05:50:20.941Z,11.15
2022-12-15T05:54:25.454Z,13.15
2022-12-15T05:58:28.360Z,11.00
2022-12-15T06:02:31.238Z,10.45
2022-12-15T06:06:34.498Z,11.00
2022-12-15T06:10:38.659Z,10.63
2022-12-15T06:14:41.632Z,10.98
2022-12-15T06:18:50.006Z,11.77
2022-12-15T06:22:53.194Z,10.52
2022-12-15T06:26:57.354Z,10.80
2022-12-15T06:31:04.251Z,10.38
2022-12-15T06:35:08.243Z,10.68
2022-12-15T06:39:15.036Z,11.35
2022-12-15T06:43:19.225Z,10.27
2022-12-15T06:47:22.040Z,10.80
2022-12-15T06:51:25.197Z,11.07
2022-12-15T06:55:28.017Z,10.77
2022-12-15T06:59:32.852Z,11.25
2022-12-15T07:03:36.745Z,10.13
2022-12-15T07:07:40.069Z,10.43
2022-12-15T07:11:42.934Z,10.90
2022-12-15T07:15:49.955Z,10.20
2022-12-15T07:19:52.836Z,10.82
2022-12-15T07:23:57.254Z,12.13
2022-12-15T07:28:01.039Z,13.52
2022-12-15T07:32:05.609Z,13.38
2022-12-15T07:36:09.256Z,13.88
2022-12-15T07:40:13.034Z,13.48
2022-12-15T07:44:16.043Z,12.73
2022-12-15T07:48:20.645Z,11.85
2022-12-15T07:52:24.103Z,13.25
2022-12-15T07:56:26.954Z,13.20
2022-12-15T08:00:29.969Z,13.75
2022-12-15T08:04:34.475Z,13.70
2022-12-15T08:08:37.494Z,14.38
2022-12-15T08:12:40.480Z,16.58
2022-12-15T08:16:43.436Z,15.48
2022-12-15T08:20:50.368Z,17.20
2022-12-15T08:24:53.291Z,18.73
2022-12-15T08:29:11.770Z,18.05
2022-12-15T08:33:20.160Z,15.52
2022-12-15T08:37:24.335Z,17.48
2022-12-15T08:41:29.667Z,17.67
2022-12-15T08:45:32.562Z,16.45
2022-12-15T08:49:35.580Z,18.83
2022-12-15T08:53:39.912Z,17.02
2022-12-15T08:57:42.796Z,17.17
2022-12-15T09:01:45.783Z,17.00
2022-12-15T09:05:48.688Z,17.58
2022-12-15T09:09:54.447Z,18.70
2022-12-15T09:13:57.612Z,17.88
2022-12-15T09:18:00.492Z,15.57
2022-12-15T09:22:05.173Z,15.27
2022-12-15T09:26:11.573Z,15.57
2022-12-15T09:30:15.082Z,16.05
2022-12-15T09:34:18.114Z,16.67
2022-12-15T09:38:20.994Z,16.65
2022-12-15T09:42:28.171Z,17.77
2022-12-15T09:46:50.255Z,16.20
2022-12-15T09:50:55.515Z,17.50
2022-12-15T09:54:59.261Z,15.85
2022-12-15T09:59:11.530Z,16.58
2022-12-15T10:03:35.864Z,15.27
2022-12-15T10:07:44.143Z,14.40
2022-12-15T10:11:52.173Z,11.55
2022-12-15T10:16:01.571Z,12.20
2022-12-15T10:20:14.197Z,13.45
2022-12-15T10:24:37.346Z,12.75
2022-12-15T10:29:00.397Z,11.30
2022-12-15T10:33:12.604Z,7.13
2022-12-15T10:37:18.936Z,6.75
2022-12-15T10:41:23.341Z,6.85
2022-12-15T10:45:36.711Z,6.55
2022-12-15T10:49:40.919Z,6.80
2022-12-15T10:53:50.204Z,6.35
2022-12-15T10:58:00.604Z,7.22
2022-12-15T11:02:29.537Z,6.53
2022-12-15T11:06:36.766Z,5.68
2022-12-15T11:11:09.424Z,5.68
2022-12-15T11:15:46.199Z,5.72
2022-12-15T11:24:29.534Z,6.22
2022-12-15T11:28:39.966Z,6.85
2022-12-15T11:32:45.086Z,6.25
2022-12-15T11:37:24.174Z,5.95
2022-12-15T11:41:38.107Z,5.43
2022-12-15T11:45:50.521Z,5.78
2022-12-15T11:50:17.793Z,6.18
2022-12-15T11:54:28.381Z,6.10
2022-12-15T11:58:53.336Z,6.32
2022-12-15T12:03:11.676Z,5.85
2022-12-15T12:07:22.532Z,6.18
2022-12-15T12:11:32.032Z,4.88
2022-12-15T12:15:44.929Z,4.90
2022-12-15T12:19:52.721Z,4.75
2022-12-15T12:24:01.612Z,5.28
2022-12-15T12:28:07.317Z,5.50
2022-12-15T12:32:18.003Z,5.65
2022-12-15T12:36:20.952Z,5.53
2022-12-15T12:40:31.932Z,5.28
2022-12-15T12:44:37.553Z,5.57
2022-12-15T12:48:48.550Z,5.43
2022-12-15T12:52:54.650Z,6.00
2022-12-15T12:56:57.692Z,6.25
2022-12-15T13:01:17.137Z,6.72
2022-12-15T13:05:28.755Z,6.80
2022-12-15T13:09:40.852Z,7.30
2022-12-15T13:13:51.144Z,6.65
2022-12-15T13:17:58.845Z,6.18
2022-12-15T13:22:03.844Z,6.72
2022-12-15T13:26:15.957Z,6.30
2022-12-15T13:30:19.777Z,6.18
2022-12-15T13:34:25.636Z,5.97
2022-12-15T13:38:53.917Z,5.95
2022-12-15T13:42:59.426Z,6.15
2022-12-15T13:47:11.454Z,5.85
2022-12-15T13:51:30.141Z,6.22
2022-12-15T13:55:39.665Z,6.70
2022-12-15T13:59:45.675Z,6.72
2022-12-15T14:04:05.872Z,6.85
2022-12-15T14:08:11.766Z,6.40
2022-12-15T14:12:16.129Z,6.43
2022-12-15T14:16:22.059Z,6.57
2022-12-15T14:20:27.752Z,7.30
2022-12-15T14:24:40.887Z,7.60
2022-12-15T14:28:47.465Z,7.70
2022-12-15T14:32:57.429Z,8.30
2022-12-15T14:37:04.470Z,8.25
2022-12-15T14:41:11.012Z,7.95
2022-12-15T14:45:24.686Z,7.50
2022-12-15T14:49:30.397Z,8.10
2022-12-15T14:53:35.689Z,11.32
2022-12-15T14:57:42.194Z,9.98
2022-12-15T15:01:58.481Z,10.23
2022-12-15T15:03:04.702Z,6.03
2022-12-15T15:06:19.512Z,8.85
2022-12-15T15:10:24.865Z,9.32
2022-12-15T15:14:31.345Z,8.85
2022-12-15T15:18:35.580Z,9.68
2022-12-15T15:22:40.826Z,9.50
2022-12-15T15:26:43.996Z,9.60
2022-12-15T15:30:48.896Z,9.75
2022-12-15T15:34:53.362Z,9.73
2022-12-15T15:38:56.393Z,13.18
2022-12-15T15:42:59.276Z,12.15
2022-12-15T15:47:02.384Z,11.77
2022-12-15T15:51:07.264Z,10.40
2022-12-15T15:55:14.452Z,11.15
2022-12-15T15:59:20.816Z,10.13
2022-12-15T16:03:23.901Z,10.20
2022-12-15T16:07:29.801Z,11.27
2022-12-15T16:11:32.663Z,10.38
2022-12-15T16:15:35.485Z,10.65
2022-12-15T16:19:39.901Z,21.20
2022-12-15T16:23:46.979Z,13.82
2022-12-15T16:27:49.818Z,13.13
2022-12-15T16:31:52.631Z,12.55
2022-12-15T16:35:55.510Z,11.20
2022-12-15T16:39:59.908Z,11.05
2022-12-15T16:44:02.741Z,11.15
2022-12-15T16:48:06.012Z,11.50
2022-12-15T16:52:19.216Z,10.68
2022-12-15T16:56:23.398Z,10.75
2022-12-15T17:00:28.615Z,10.18
2022-12-15T17:04:31.754Z,10.38
2022-12-15T17:08:40.209Z,10.55
2022-12-15T17:12:44.988Z,9.55
2022-12-15T17:16:47.787Z,10.07
2022-12-15T17:20:50.923Z,9.88
2022-12-15T17:24:53.922Z,10.80
2022-12-15T17:29:01.257Z,10.88
2022-12-15T17:33:04.158Z,12.45
2022-12-15T17:37:13.337Z,13.00
2022-12-15T17:41:42.350Z,12.43
2022-12-15T17:45:40.536Z,12.70
2022-12-15T17:49:43.744Z,12.80
2022-12-15T17:53:49.117Z,14.88
2022-12-15T17:57:53.578Z,14.30
2022-12-15T18:01:57.774Z,13.38
2022-12-15T18:06:00.641Z,14.93
2022-12-15T18:10:04.145Z,13.82
2022-12-15T18:14:13.125Z,13.55
2022-12-15T18:18:18.227Z,15.77
2022-12-15T18:22:23.649Z,12.98
2022-12-15T18:26:26.624Z,14.35
2022-12-15T18:30:29.458Z,17.30
2022-12-15T18:34:33.567Z,17.65
2022-12-15T18:38:36.472Z,13.90
2022-12-15T18:42:40.518Z,13.13
2022-12-15T18:46:47.780Z,12.68
2022-12-15T18:50:54.453Z,11.80
2022-12-15T18:54:57.291Z,12.82
2022-12-15T18:59:00.120Z,13.10
2022-12-15T19:03:03.111Z,17.35
2022-12-15T19:07:09.032Z,13.35
2022-12-15T19:11:18.546Z,16.35
2022-12-15T19:15:23.008Z,16.05
2022-12-15T19:19:43.366Z,16.38
2022-12-15T19:23:47.927Z,14.48
2022-12-15T19:27:50.927Z,16.13
2022-12-15T19:31:54.729Z,18.33
2022-12-15T19:35:57.749Z,17.92
2022-12-15T19:40:03.097Z,16.52
2022-12-15T19:44:14.465Z,15.23
2022-12-15T19:48:22.945Z,14.85
2022-12-15T19:52:28.006Z,15.30
2022-12-15T19:56:32.330Z,14.50
2022-12-15T20:00:35.139Z,14.82
2022-12-15T20:04:38.103Z,14.38
2022-12-15T20:08:43.567Z,15.18
2022-12-15T20:12:48.337Z,16.10
2022-12-15T20:16:51.516Z,14.13
2022-12-15T20:20:55.532Z,15.02
2022-12-15T20:24:58.392Z,16.02
2022-12-15T20:29:02.710Z,16.50
2022-12-15T20:33:06.740Z,16.58
2022-12-15T20:37:19.389Z,14.63
2022-12-15T20:41:23.707Z,14.93
2022-12-15T20:45:28.227Z,14.00
2022-12-15T20:49:31.045Z,15.07
2022-12-15T20:53:34.157Z,13.57
2022-12-15T20:57:37.558Z,14.48
2022-12-15T21:01:43.055Z,14.27
2022-12-15T21:05:46.779Z,13.27
2022-12-15T21:09:49.866Z,13.52
2022-12-15T21:13:54.938Z,13.23
2022-12-15T21:18:40.315Z,13.52
2022-12-15T21:22:24.404Z,13.63
2022-12-15T21:26:27.706Z,14.60
2022-12-15T21:30:30.594Z,23.73
2022-12-15T21:34:35.233Z,17.23
2022-12-15T21:38:41.441Z,15.75
2022-12-15T21:42:44.591Z,15.68
2022-12-15T21:46:48.440Z,16.63
2022-12-15T21:50:52.825Z,15.73
2022-12-15T21:54:55.735Z,14.88
2022-12-15T21:58:59.033Z,15.65
2022-12-15T22:03:02.218Z,15.60
2022-12-15T22:07:07.602Z,15.30
2022-12-15T22:11:19.978Z,15.00
2022-12-15T22:15:24.031Z,14.18
2022-12-15T22:19:27.157Z,13.57
2022-12-15T22:23:31.362Z,13.32
2022-12-15T22:27:34.664Z,14.02
2022-12-15T22:31:37.509Z,13.73
2022-12-15T22:35:43.434Z,13.02
2022-12-15T22:39:49.396Z,12.35
2022-12-15T22:43:54.987Z,11.32
2022-12-15T22:47:57.914Z,10.75
2022-12-15T22:52:01.009Z,11.30
2022-12-15T22:56:11.065Z,11.32
2022-12-15T23:00:14.936Z,10.70
2022-12-15T23:04:18.069Z,10.82
2022-12-15T23:08:21.260Z,11.60
2022-12-15T23:12:25.498Z,11.63
2022-12-15T23:16:28.392Z,11.07
2022-12-15T23:20:31.279Z,11.32
2022-12-15T23:24:34.652Z,11.52
2022-12-15T23:28:39.259Z,12.57
2022-12-15T23:32:42.032Z,10.55
2022-12-15T23:36:44.938Z,10.80
2022-12-15T23:40:52.500Z,10.50
2022-12-15T23:44:57.295Z,10.35
2022-12-15T23:49:00.154Z,9.85
2022-12-15T23:53:03.943Z,9.75
2022-12-15T23:57:06.806Z,10.43
